sensor_id;sensor_type;location;lat;lon;timestamp;P1;durP1;ratioP1;P2;durP2;ratioP2
22184;SDS011;11258;52.516;13.318;2023-06-14T00:00:47;4.15;;;2.55;;
22184;SDS011;11258;52.516;13.318;2023-06-14T00:03:14;3.92;;;2.40;;
22184;SDS011;11258;52.516;13.318;2023-06-14T00:05:42;2.78;;;2.22;;
22184;SDS011;11258;52.516;13.318;2023-06-14T00:08:09;2.83;;;2.15;;
22184;SDS011;11258;52.516;13.318;2023-06-14T00:10:35;4.50;;;2.60;;
22184;SDS011;11258;52.516;13.318;2023-06-14T00:13:05;4.95;;;2.28;;
22184;SDS011;11258;52.516;13.318;2023-06-14T00:15:32;3.30;;;2.50;;
22184;SDS011;11258;52.516;13.318;2023-06-14T00:17:58;5.65;;;2.83;;
22184;SDS011;11258;52.516;13.318;2023-06-14T00:20:27;2.70;;;2.35;;
22184;SDS011;11258;52.516;13.318;2023-06-14T00:22:53;3.55;;;2.67;;
22184;SDS011;11258;52.516;13.318;2023-06-14T00:25:23;4.97;;;3.00;;
22184;SDS011;11258;52.516;13.318;2023-06-14T00:27:50;4.15;;;2.60;;
22184;SDS011;11258;52.516;13.318;2023-06-14T00:30:16;3.17;;;2.58;;
22184;SDS011;11258;52.516;13.318;2023-06-14T00:32:42;3.67;;;2.33;;
22184;SDS011;11258;52.516;13.318;2023-06-14T00:35:08;6.05;;;2.53;;
22184;SDS011;11258;52.516;13.318;2023-06-14T00:37:34;4.85;;;3.08;;
22184;SDS011;11258;52.516;13.318;2023-06-14T00:40:00;5.10;;;2.63;;
22184;SDS011;11258;52.516;13.318;2023-06-14T00:42:26;3.40;;;2.70;;
22184;SDS011;11258;52.516;13.318;2023-06-14T00:44:53;3.25;;;2.95;;
22184;SDS011;11258;52.516;13.318;2023-06-14T00:47:19;2.97;;;2.63;;
22184;SDS011;11258;52.516;13.318;2023-06-14T00:49:46;6.68;;;3.35;;
22184;SDS011;11258;52.516;13.318;2023-06-14T00:52:13;4.18;;;2.70;;
22184;SDS011;11258;52.516;13.318;2023-06-14T00:54:39;6.65;;;3.15;;
22184;SDS011;11258;52.516;13.318;2023-06-14T00:57:06;6.63;;;3.58;;
22184;SDS011;11258;52.516;13.318;2023-06-14T00:59:32;4.05;;;2.80;;
22184;SDS011;11258;52.516;13.318;2023-06-14T01:01:58;5.95;;;3.78;;
22184;SDS011;11258;52.516;13.318;2023-06-14T01:04:24;5.45;;;3.22;;
22184;SDS011;11258;52.516;13.318;2023-06-14T01:15:03;5.43;;;3.42;;
22184;SDS011;11258;52.516;13.318;2023-06-14T01:17:30;4.35;;;3.53;;
22184;SDS011;11258;52.516;13.318;2023-06-14T01:19:57;5.70;;;3.92;;
22184;SDS011;11258;52.516;13.318;2023-06-14T01:22:27;6.40;;;3.60;;
22184;SDS011;11258;52.516;13.318;2023-06-14T01:24:53;8.70;;;3.15;;
22184;SDS011;11258;52.516;13.318;2023-06-14T01:27:29;6.68;;;4.10;;
22184;SDS011;11258;52.516;13.318;2023-06-14T01:29:57;5.82;;;3.58;;
22184;SDS011;11258;52.516;13.318;2023-06-14T01:34:51;5.78;;;3.95;;
22184;SDS011;11258;52.516;13.318;2023-06-14T01:37:17;9.00;;;3.58;;
22184;SDS011;11258;52.516;13.318;2023-06-14T01:39:44;4.30;;;3.90;;
22184;SDS011;11258;52.516;13.318;2023-06-14T01:42:10;6.28;;;4.15;;
22184;SDS011;11258;52.516;13.318;2023-06-14T01:44:38;5.32;;;3.42;;
22184;SDS011;11258;52.516;13.318;2023-06-14T01:47:05;6.05;;;3.95;;
22184;SDS011;11258;52.516;13.318;2023-06-14T01:49:33;8.65;;;3.90;;
22184;SDS011;11258;52.516;13.318;2023-06-14T01:51:59;7.32;;;3.80;;
22184;SDS011;11258;52.516;13.318;2023-06-14T01:54:25;5.43;;;3.95;;
22184;SDS011;11258;52.516;13.318;2023-06-14T01:56:52;4.50;;;3.70;;
22184;SDS011;11258;52.516;13.318;2023-06-14T01:59:18;4.75;;;3.78;;
22184;SDS011;11258;52.516;13.318;2023-06-14T02:01:43;4.28;;;3.30;;
22184;SDS011;11258;52.516;13.318;2023-06-14T02:04:11;6.47;;;3.92;;
22184;SDS011;11258;52.516;13.318;2023-06-14T02:06:36;5.38;;;4.10;;
22184;SDS011;11258;52.516;13.318;2023-06-14T02:09:02;8.48;;;4.57;;
22184;SDS011;11258;52.516;13.318;2023-06-14T02:11:28;4.63;;;3.88;;
22184;SDS011;11258;52.516;13.318;2023-06-14T02:13:54;7.55;;;4.43;;
22184;SDS011;11258;52.516;13.318;2023-06-14T02:16:21;6.53;;;4.43;;
22184;SDS011;11258;52.516;13.318;2023-06-14T02:18:47;5.18;;;4.43;;
22184;SDS011;11258;52.516;13.318;2023-06-14T02:21:13;7.20;;;4.68;;
22184;SDS011;11258;52.516;13.318;2023-06-14T02:23:39;4.63;;;3.95;;
22184;SDS011;11258;52.516;13.318;2023-06-14T02:26:05;6.97;;;4.20;;
22184;SDS011;11258;52.516;13.318;2023-06-14T02:28:30;6.18;;;4.35;;
22184;SDS011;11258;52.516;13.318;2023-06-14T02:30:56;4.93;;;4.30;;
22184;SDS011;11258;52.516;13.318;2023-06-14T02:33:22;7.65;;;4.35;;
22184;SDS011;11258;52.516;13.318;2023-06-14T02:35:48;7.13;;;5.22;;
22184;SDS011;11258;52.516;13.318;2023-06-14T02:38:13;7.65;;;4.50;;
22184;SDS011;11258;52.516;13.318;2023-06-14T02:40:39;6.28;;;4.97;;
22184;SDS011;11258;52.516;13.318;2023-06-14T02:43:07;5.57;;;4.50;;
22184;SDS011;11258;52.516;13.318;2023-06-14T02:45:33;8.07;;;5.30;;
22184;SDS011;11258;52.516;13.318;2023-06-14T02:47:58;8.13;;;4.65;;
22184;SDS011;11258;52.516;13.318;2023-06-14T02:50:24;6.72;;;4.68;;
22184;SDS011;11258;52.516;13.318;2023-06-14T02:52:50;6.20;;;4.30;;
22184;SDS011;11258;52.516;13.318;2023-06-14T02:55:17;7.60;;;4.88;;
22184;SDS011;11258;52.516;13.318;2023-06-14T02:57:43;8.13;;;4.63;;
22184;SDS011;11258;52.516;13.318;2023-06-14T03:00:09;6.57;;;4.85;;
22184;SDS011;11258;52.516;13.318;2023-06-14T03:02:35;5.22;;;4.72;;
22184;SDS011;11258;52.516;13.318;2023-06-14T03:05:01;10.38;;;4.80;;
22184;SDS011;11258;52.516;13.318;2023-06-14T03:07:28;8.43;;;4.97;;
22184;SDS011;11258;52.516;13.318;2023-06-14T03:09:54;6.50;;;4.97;;
22184;SDS011;11258;52.516;13.318;2023-06-14T03:12:20;8.18;;;4.53;;
22184;SDS011;11258;52.516;13.318;2023-06-14T03:14:46;8.20;;;4.75;;
22184;SDS011;11258;52.516;13.318;2023-06-14T03:17:11;7.85;;;4.72;;
22184;SDS011;11258;52.516;13.318;2023-06-14T03:19:37;7.82;;;5.20;;
22184;SDS011;11258;52.516;13.318;2023-06-14T03:22:03;7.75;;;5.10;;
22184;SDS011;11258;52.516;13.318;2023-06-14T03:24:29;6.63;;;4.97;;
22184;SDS011;11258;52.516;13.318;2023-06-14T03:26:57;8.55;;;4.90;;
22184;SDS011;11258;52.516;13.318;2023-06-14T03:29:22;6.18;;;4.95;;
22184;SDS011;11258;52.516;13.318;2023-06-14T03:32:00;7.90;;;4.72;;
22184;SDS011;11258;52.516;13.318;2023-06-14T03:34:27;6.28;;;4.68;;
22184;SDS011;11258;52.516;13.318;2023-06-14T03:36:52;5.57;;;4.85;;
22184;SDS011;11258;52.516;13.318;2023-06-14T03:39:18;7.18;;;4.65;;
22184;SDS011;11258;52.516;13.318;2023-06-14T03:41:44;7.07;;;4.80;;
22184;SDS011;11258;52.516;13.318;2023-06-14T03:44:10;6.90;;;4.68;;
22184;SDS011;11258;52.516;13.318;2023-06-14T03:46:36;7.07;;;4.70;;
22184;SDS011;11258;52.516;13.318;2023-06-14T03:49:02;7.18;;;4.97;;
22184;SDS011;11258;52.516;13.318;2023-06-14T03:51:28;6.60;;;5.30;;
22184;SDS011;11258;52.516;13.318;2023-06-14T03:53:54;7.53;;;5.07;;
22184;SDS011;11258;52.516;13.318;2023-06-14T03:56:20;5.80;;;4.35;;
22184;SDS011;11258;52.516;13.318;2023-06-14T03:58:46;7.63;;;4.85;;
22184;SDS011;11258;52.516;13.318;2023-06-14T04:01:12;4.90;;;4.40;;
22184;SDS011;11258;52.516;13.318;2023-06-14T04:03:37;6.32;;;5.18;;
22184;SDS011;11258;52.516;13.318;2023-06-14T04:06:05;5.78;;;4.38;;
22184;SDS011;11258;52.516;13.318;2023-06-14T04:08:31;8.00;;;5.53;;
22184;SDS011;11258;52.516;13.318;2023-06-14T04:10:57;8.32;;;5.20;;
22184;SDS011;11258;52.516;13.318;2023-06-14T04:13:22;6.97;;;4.32;;
22184;SDS011;11258;52.516;13.318;2023-06-14T04:15:48;8.50;;;5.28;;
22184;SDS011;11258;52.516;13.318;2023-06-14T04:18:14;6.72;;;5.35;;
22184;SDS011;11258;52.516;13.318;2023-06-14T04:20:40;8.68;;;4.65;;
22184;SDS011;11258;52.516;13.318;2023-06-14T04:23:16;8.07;;;4.78;;
22184;SDS011;11258;52.516;13.318;2023-06-14T04:25:46;4.95;;;4.32;;
22184;SDS011;11258;52.516;13.318;2023-06-14T04:28:12;6.03;;;5.20;;
22184;SDS011;11258;52.516;13.318;2023-06-14T04:30:42;6.20;;;4.68;;
22184;SDS011;11258;52.516;13.318;2023-06-14T04:33:09;6.55;;;4.85;;
22184;SDS011;11258;52.516;13.318;2023-06-14T04:35:36;4.65;;;4.25;;
22184;SDS011;11258;52.516;13.318;2023-06-14T04:38:05;7.43;;;5.22;;
22184;SDS011;11258;52.516;13.318;2023-06-14T04:40:34;6.10;;;4.93;;
22184;SDS011;11258;52.516;13.318;2023-06-14T04:43:01;5.65;;;4.88;;
22184;SDS011;11258;52.516;13.318;2023-06-14T04:45:31;6.82;;;4.68;;
22184;SDS011;11258;52.516;13.318;2023-06-14T04:47:58;7.45;;;5.38;;
22184;SDS011;11258;52.516;13.318;2023-06-14T04:50:24;5.22;;;4.72;;
22184;SDS011;11258;52.516;13.318;2023-06-14T04:52:50;5.75;;;5.18;;
22184;SDS011;11258;52.516;13.318;2023-06-14T04:55:16;6.95;;;5.10;;
22184;SDS011;11258;52.516;13.318;2023-06-14T04:57:44;8.10;;;5.57;;
22184;SDS011;11258;52.516;13.318;2023-06-14T05:00:10;6.97;;;4.60;;
22184;SDS011;11258;52.516;13.318;2023-06-14T05:02:36;5.28;;;4.20;;
22184;SDS011;11258;52.516;13.318;2023-06-14T05:05:03;6.68;;;4.88;;
22184;SDS011;11258;52.516;13.318;2023-06-14T05:07:31;6.10;;;4.38;;
22184;SDS011;11258;52.516;13.318;2023-06-14T05:09:58;7.70;;;5.30;;
22184;SDS011;11258;52.516;13.318;2023-06-14T05:12:24;6.38;;;4.47;;
22184;SDS011;11258;52.516;13.318;2023-06-14T05:14:50;5.05;;;4.55;;
22184;SDS011;11258;52.516;13.318;2023-06-14T05:17:15;5.10;;;4.70;;
22184;SDS011;11258;52.516;13.318;2023-06-14T05:19:42;5.45;;;4.80;;
22184;SDS011;11258;52.516;13.318;2023-06-14T05:22:07;5.85;;;5.20;;
22184;SDS011;11258;52.516;13.318;2023-06-14T05:24:33;7.55;;;5.68;;
22184;SDS011;11258;52.516;13.318;2023-06-14T05:26:59;6.55;;;5.35;;
22184;SDS011;11258;52.516;13.318;2023-06-14T05:29:24;8.45;;;5.53;;
22184;SDS011;11258;52.516;13.318;2023-06-14T05:31:50;8.02;;;6.03;;
22184;SDS011;11258;52.516;13.318;2023-06-14T05:34:16;10.07;;;6.10;;
22184;SDS011;11258;52.516;13.318;2023-06-14T05:36:42;7.78;;;6.63;;
22184;SDS011;11258;52.516;13.318;2023-06-14T05:39:07;8.68;;;6.50;;
22184;SDS011;11258;52.516;13.318;2023-06-14T05:41:33;12.68;;;9.93;;
22184;SDS011;11258;52.516;13.318;2023-06-14T05:43:59;9.25;;;6.10;;
22184;SDS011;11258;52.516;13.318;2023-06-14T05:46:25;6.45;;;5.80;;
22184;SDS011;11258;52.516;13.318;2023-06-14T05:48:51;6.55;;;5.85;;
22184;SDS011;11258;52.516;13.318;2023-06-14T05:51:17;8.75;;;6.68;;
22184;SDS011;11258;52.516;13.318;2023-06-14T05:53:46;14.18;;;10.15;;
22184;SDS011;11258;52.516;13.318;2023-06-14T05:56:12;14.90;;;11.05;;
22184;SDS011;11258;52.516;13.318;2023-06-14T05:58:39;8.95;;;7.03;;
22184;SDS011;11258;52.516;13.318;2023-06-14T06:01:04;12.13;;;9.63;;
22184;SDS011;11258;52.516;13.318;2023-06-14T06:03:30;9.38;;;7.15;;
22184;SDS011;11258;52.516;13.318;2023-06-14T06:05:56;9.95;;;7.75;;
22184;SDS011;11258;52.516;13.318;2023-06-14T06:08:22;12.20;;;6.93;;
22184;SDS011;11258;52.516;13.318;2023-06-14T06:10:47;10.52;;;6.47;;
22184;SDS011;11258;52.516;13.318;2023-06-14T06:13:13;10.90;;;6.20;;
22184;SDS011;11258;52.516;13.318;2023-06-14T06:15:38;9.40;;;6.25;;
22184;SDS011;11258;52.516;13.318;2023-06-14T06:18:04;7.38;;;6.38;;
22184;SDS011;11258;52.516;13.318;2023-06-14T06:20:30;7.53;;;5.78;;
22184;SDS011;11258;52.516;13.318;2023-06-14T06:22:59;9.55;;;6.60;;
22184;SDS011;11258;52.516;13.318;2023-06-14T06:25:25;9.85;;;7.55;;
22184;SDS011;11258;52.516;13.318;2023-06-14T06:27:52;7.43;;;5.45;;
22184;SDS011;11258;52.516;13.318;2023-06-14T06:30:19;11.35;;;6.03;;
22184;SDS011;11258;52.516;13.318;2023-06-14T06:32:44;9.13;;;5.90;;
22184;SDS011;11258;52.516;13.318;2023-06-14T06:35:10;11.45;;;5.57;;
22184;SDS011;11258;52.516;13.318;2023-06-14T06:37:37;9.23;;;7.03;;
22184;SDS011;11258;52.516;13.318;2023-06-14T06:40:03;10.05;;;6.57;;
22184;SDS011;11258;52.516;13.318;2023-06-14T06:42:31;9.02;;;6.18;;
22184;SDS011;11258;52.516;13.318;2023-06-14T06:44:57;7.20;;;6.05;;
22184;SDS011;11258;52.516;13.318;2023-06-14T06:47:23;12.05;;;6.43;;
22184;SDS011;11258;52.516;13.318;2023-06-14T06:49:49;8.55;;;5.45;;
22184;SDS011;11258;52.516;13.318;2023-06-14T06:52:15;9.93;;;5.80;;
22184;SDS011;11258;52.516;13.318;2023-06-14T06:54:41;8.90;;;5.50;;
22184;SDS011;11258;52.516;13.318;2023-06-14T06:57:06;9.65;;;5.38;;
22184;SDS011;11258;52.516;13.318;2023-06-14T06:59:32;11.55;;;7.70;;
22184;SDS011;11258;52.516;13.318;2023-06-14T07:01:58;8.18;;;6.15;;
22184;SDS011;11258;52.516;13.318;2023-06-14T07:04:24;9.30;;;5.65;;
22184;SDS011;11258;52.516;13.318;2023-06-14T07:06:50;9.55;;;5.55;;
22184;SDS011;11258;52.516;13.318;2023-06-14T07:09:15;8.85;;;6.20;;
22184;SDS011;11258;52.516;13.318;2023-06-14T07:11:42;7.60;;;5.30;;
22184;SDS011;11258;52.516;13.318;2023-06-14T07:14:08;7.22;;;5.47;;
22184;SDS011;11258;52.516;13.318;2023-06-14T07:16:34;8.60;;;5.60;;
22184;SDS011;11258;52.516;13.318;2023-06-14T07:19:00;8.23;;;5.60;;
22184;SDS011;11258;52.516;13.318;2023-06-14T07:21:29;9.32;;;5.93;;
22184;SDS011;11258;52.516;13.318;2023-06-14T07:23:55;8.20;;;5.32;;
22184;SDS011;11258;52.516;13.318;2023-06-14T07:26:21;11.88;;;5.40;;
22184;SDS011;11258;52.516;13.318;2023-06-14T07:28:47;8.30;;;5.55;;
22184;SDS011;11258;52.516;13.318;2023-06-14T07:31:14;9.27;;;5.63;;
22184;SDS011;11258;52.516;13.318;2023-06-14T07:33:40;8.70;;;5.43;;
22184;SDS011;11258;52.516;13.318;2023-06-14T07:36:07;11.15;;;5.18;;
22184;SDS011;11258;52.516;13.318;2023-06-14T07:38:33;6.55;;;5.60;;
22184;SDS011;11258;52.516;13.318;2023-06-14T07:40:59;8.00;;;4.85;;
22184;SDS011;11258;52.516;13.318;2023-06-14T07:43:25;11.27;;;5.57;;
22184;SDS011;11258;52.516;13.318;2023-06-14T07:45:50;13.25;;;5.43;;
22184;SDS011;11258;52.516;13.318;2023-06-14T07:48:16;9.40;;;4.97;;
22184;SDS011;11258;52.516;13.318;2023-06-14T07:50:43;9.35;;;4.85;;
22184;SDS011;11258;52.516;13.318;2023-06-14T07:53:09;9.15;;;5.15;;
22184;SDS011;11258;52.516;13.318;2023-06-14T07:55:34;7.90;;;5.80;;
22184;SDS011;11258;52.516;13.318;2023-06-14T07:58:03;9.18;;;4.93;;
22184;SDS011;11258;52.516;13.318;2023-06-14T08:00:29;7.97;;;4.80;;
22184;SDS011;11258;52.516;13.318;2023-06-14T08:02:54;8.38;;;5.60;;
22184;SDS011;11258;52.516;13.318;2023-06-14T08:05:26;6.90;;;4.10;;
22184;SDS011;11258;52.516;13.318;2023-06-14T08:07:53;6.03;;;4.28;;
22184;SDS011;11258;52.516;13.318;2023-06-14T08:10:19;7.40;;;4.78;;
22184;SDS011;11258;52.516;13.318;2023-06-14T08:12:45;7.45;;;4.72;;
22184;SDS011;11258;52.516;13.318;2023-06-14T08:15:10;5.97;;;3.78;;
22184;SDS011;11258;52.516;13.318;2023-06-14T08:17:36;5.78;;;4.03;;
22184;SDS011;11258;52.516;13.318;2023-06-14T08:20:05;7.43;;;3.97;;
22184;SDS011;11258;52.516;13.318;2023-06-14T08:22:31;5.97;;;3.92;;
22184;SDS011;11258;52.516;13.318;2023-06-14T08:25:01;8.45;;;3.80;;
22184;SDS011;11258;52.516;13.318;2023-06-14T08:27:27;9.18;;;3.80;;
22184;SDS011;11258;52.516;13.318;2023-06-14T08:29:53;4.88;;;3.88;;
22184;SDS011;11258;52.516;13.318;2023-06-14T08:32:18;8.10;;;3.80;;
22184;SDS011;11258;52.516;13.318;2023-06-14T08:34:44;5.72;;;3.53;;
22184;SDS011;11258;52.516;13.318;2023-06-14T08:37:10;8.15;;;3.90;;
22184;SDS011;11258;52.516;13.318;2023-06-14T08:39:35;8.88;;;3.50;;
22184;SDS011;11258;52.516;13.318;2023-06-14T08:42:02;7.75;;;3.92;;
22184;SDS011;11258;52.516;13.318;2023-06-14T08:44:28;8.07;;;3.42;;
22184;SDS011;11258;52.516;13.318;2023-06-14T08:46:55;7.30;;;3.75;;
22184;SDS011;11258;52.516;13.318;2023-06-14T08:49:22;6.35;;;3.80;;
22184;SDS011;11258;52.516;13.318;2023-06-14T08:51:49;8.00;;;5.20;;
22184;SDS011;11258;52.516;13.318;2023-06-14T08:54:25;5.47;;;4.07;;
22184;SDS011;11258;52.516;13.318;2023-06-14T08:57:00;8.13;;;4.60;;
22184;SDS011;11258;52.516;13.318;2023-06-14T08:59:27;6.95;;;3.95;;
22184;SDS011;11258;52.516;13.318;2023-06-14T09:01:53;6.47;;;3.85;;
22184;SDS011;11258;52.516;13.318;2023-06-14T09:04:25;6.95;;;3.88;;
22184;SDS011;11258;52.516;13.318;2023-06-14T09:06:54;4.97;;;3.50;;
22184;SDS011;11258;52.516;13.318;2023-06-14T09:09:20;4.93;;;4.00;;
22184;SDS011;11258;52.516;13.318;2023-06-14T09:11:48;7.38;;;3.95;;
22184;SDS011;11258;52.516;13.318;2023-06-14T09:14:15;5.30;;;3.28;;
22184;SDS011;11258;52.516;13.318;2023-06-14T09:16:41;6.70;;;3.45;;
22184;SDS011;11258;52.516;13.318;2023-06-14T09:19:06;7.07;;;4.47;;
22184;SDS011;11258;52.516;13.318;2023-06-14T09:21:35;6.15;;;3.92;;
22184;SDS011;11258;52.516;13.318;2023-06-14T09:24:02;9.73;;;5.45;;
22184;SDS011;11258;52.516;13.318;2023-06-14T09:26:29;5.95;;;3.50;;
22184;SDS011;11258;52.516;13.318;2023-06-14T09:28:55;6.53;;;3.83;;
22184;SDS011;11258;52.516;13.318;2023-06-14T09:31:20;7.25;;;4.55;;
22184;SDS011;11258;52.516;13.318;2023-06-14T09:33:47;4.28;;;3.80;;
22184;SDS011;11258;52.516;13.318;2023-06-14T09:36:20;3.92;;;3.47;;
22184;SDS011;11258;52.516;13.318;2023-06-14T09:38:55;7.35;;;3.67;;
22184;SDS011;11258;52.516;13.318;2023-06-14T09:41:40;7.07;;;3.70;;
22184;SDS011;11258;52.516;13.318;2023-06-14T09:44:07;8.70;;;4.80;;
22184;SDS011;11258;52.516;13.318;2023-06-14T09:46:35;8.85;;;4.00;;
22184;SDS011;11258;52.516;13.318;2023-06-14T09:49:01;8.55;;;4.68;;
22184;SDS011;11258;52.516;13.318;2023-06-14T09:51:28;6.43;;;3.65;;
22184;SDS011;11258;52.516;13.318;2023-06-14T09:53:59;6.30;;;3.67;;
22184;SDS011;11258;52.516;13.318;2023-06-14T09:58:54;16.33;;;4.35;;
22184;SDS011;11258;52.516;13.318;2023-06-14T10:01:21;6.78;;;3.85;;
22184;SDS011;11258;52.516;13.318;2023-06-14T10:03:50;5.82;;;4.20;;
22184;SDS011;11258;52.516;13.318;2023-06-14T10:06:20;10.55;;;4.47;;
22184;SDS011;11258;52.516;13.318;2023-06-14T10:08:49;5.88;;;4.18;;
22184;SDS011;11258;52.516;13.318;2023-06-14T10:11:17;6.00;;;3.92;;
22184;SDS011;11258;52.516;13.318;2023-06-14T10:13:43;8.98;;;4.47;;
22184;SDS011;11258;52.516;13.318;2023-06-14T10:16:10;6.82;;;5.22;;
22184;SDS011;11258;52.516;13.318;2023-06-14T10:23:46;6.63;;;4.88;;
22184;SDS011;11258;52.516;13.318;2023-06-14T10:26:21;8.63;;;3.90;;
22184;SDS011;11258;52.516;13.318;2023-06-14T10:29:30;9.10;;;4.88;;
22184;SDS011;11258;52.516;13.318;2023-06-14T10:31:40;7.28;;;4.00;;
22184;SDS011;11258;52.516;13.318;2023-06-14T10:34:11;5.85;;;4.75;;
22184;SDS011;11258;52.516;13.318;2023-06-14T10:36:42;7.30;;;3.72;;
22184;SDS011;11258;52.516;13.318;2023-06-14T10:39:14;6.05;;;4.45;;
22184;SDS011;11258;52.516;13.318;2023-06-14T10:41:42;6.75;;;4.15;;
22184;SDS011;11258;52.516;13.318;2023-06-14T10:46:46;8.27;;;4.05;;
22184;SDS011;11258;52.516;13.318;2023-06-14T10:49:12;8.38;;;4.38;;
22184;SDS011;11258;52.516;13.318;2023-06-14T10:51:44;7.75;;;3.78;;
22184;SDS011;11258;52.516;13.318;2023-06-14T10:54:15;7.25;;;3.95;;
22184;SDS011;11258;52.516;13.318;2023-06-14T10:56:47;5.82;;;4.20;;
22184;SDS011;11258;52.516;13.318;2023-06-14T10:59:16;8.13;;;5.43;;
22184;SDS011;11258;52.516;13.318;2023-06-14T11:04:20;10.07;;;3.53;;
22184;SDS011;11258;52.516;13.318;2023-06-14T11:06:47;7.32;;;4.00;;
22184;SDS011;11258;52.516;13.318;2023-06-14T11:09:27;8.63;;;4.68;;
22184;SDS011;11258;52.516;13.318;2023-06-14T11:11:59;10.15;;;6.30;;
22184;SDS011;11258;52.516;13.318;2023-06-14T11:14:29;7.38;;;4.30;;
22184;SDS011;11258;52.516;13.318;2023-06-14T11:16:56;7.38;;;3.80;;
22184;SDS011;11258;52.516;13.318;2023-06-14T11:19:22;7.70;;;4.20;;
22184;SDS011;11258;52.516;13.318;2023-06-14T11:21:50;10.63;;;4.63;;
22184;SDS011;11258;52.516;13.318;2023-06-14T11:24:16;7.63;;;4.65;;
22184;SDS011;11258;52.516;13.318;2023-06-14T11:26:42;7.28;;;5.00;;
22184;SDS011;11258;52.516;13.318;2023-06-14T11:29:08;8.75;;;4.53;;
22184;SDS011;11258;52.516;13.318;2023-06-14T11:31:34;5.65;;;3.72;;
22184;SDS011;11258;52.516;13.318;2023-06-14T11:34:00;8.90;;;3.47;;
22184;SDS011;11258;52.516;13.318;2023-06-14T11:36:26;7.20;;;3.55;;
22184;SDS011;11258;52.516;13.318;2023-06-14T11:39:00;5.70;;;3.97;;
22184;SDS011;11258;52.516;13.318;2023-06-14T11:41:38;4.60;;;3.28;;
22184;SDS011;11258;52.516;13.318;2023-06-14T11:44:06;8.93;;;4.03;;
22184;SDS011;11258;52.516;13.318;2023-06-14T11:46:32;5.65;;;4.15;;
22184;SDS011;11258;52.516;13.318;2023-06-14T11:48:58;8.23;;;4.85;;
22184;SDS011;11258;52.516;13.318;2023-06-14T11:51:27;6.47;;;3.60;;
22184;SDS011;11258;52.516;13.318;2023-06-14T11:53:54;8.25;;;3.83;;
22184;SDS011;11258;52.516;13.318;2023-06-14T11:56:20;9.45;;;3.83;;
22184;SDS011;11258;52.516;13.318;2023-06-14T11:58:46;8.38;;;3.95;;
22184;SDS011;11258;52.516;13.318;2023-06-14T12:01:16;6.90;;;3.78;;
22184;SDS011;11258;52.516;13.318;2023-06-14T12:03:50;8.15;;;4.90;;
22184;SDS011;11258;52.516;13.318;2023-06-14T12:06:25;7.40;;;3.95;;
22184;SDS011;11258;52.516;13.318;2023-06-14T12:08:57;5.18;;;3.75;;
22184;SDS011;11258;52.516;13.318;2023-06-14T12:11:24;5.65;;;3.75;;
22184;SDS011;11258;52.516;13.318;2023-06-14T12:13:56;6.25;;;4.05;;
22184;SDS011;11258;52.516;13.318;2023-06-14T12:16:22;8.35;;;3.70;;
22184;SDS011;11258;52.516;13.318;2023-06-14T12:18:56;7.60;;;3.70;;
22184;SDS011;11258;52.516;13.318;2023-06-14T12:21:26;7.78;;;3.55;;
22184;SDS011;11258;52.516;13.318;2023-06-14T12:23:53;7.30;;;4.03;;
22184;SDS011;11258;52.516;13.318;2023-06-14T12:26:20;5.68;;;3.78;;
22184;SDS011;11258;52.516;13.318;2023-06-14T12:28:46;7.95;;;4.07;;
22184;SDS011;11258;52.516;13.318;2023-06-14T12:31:13;8.57;;;3.78;;
22184;SDS011;11258;52.516;13.318;2023-06-14T12:33:40;7.78;;;4.50;;
22184;SDS011;11258;52.516;13.318;2023-06-14T12:36:06;5.93;;;4.03;;
22184;SDS011;11258;52.516;13.318;2023-06-14T12:38:33;8.30;;;3.60;;
22184;SDS011;11258;52.516;13.318;2023-06-14T12:40:59;8.82;;;4.28;;
22184;SDS011;11258;52.516;13.318;2023-06-14T12:43:25;13.80;;;5.97;;
22184;SDS011;11258;52.516;13.318;2023-06-14T12:45:51;9.77;;;3.85;;
22184;SDS011;11258;52.516;13.318;2023-06-14T12:48:17;8.65;;;3.80;;
22184;SDS011;11258;52.516;13.318;2023-06-14T12:50:42;9.10;;;3.70;;
22184;SDS011;11258;52.516;13.318;2023-06-14T12:53:08;10.15;;;5.70;;
22184;SDS011;11258;52.516;13.318;2023-06-14T12:55:34;6.57;;;3.60;;
22184;SDS011;11258;52.516;13.318;2023-06-14T12:58:00;10.18;;;4.20;;
22184;SDS011;11258;52.516;13.318;2023-06-14T13:00:26;6.10;;;3.33;;
22184;SDS011;11258;52.516;13.318;2023-06-14T13:02:51;7.25;;;3.47;;
22184;SDS011;11258;52.516;13.318;2023-06-14T13:05:18;6.70;;;3.28;;
22184;SDS011;11258;52.516;13.318;2023-06-14T13:07:44;4.53;;;2.78;;
22184;SDS011;11258;52.516;13.318;2023-06-14T13:10:10;7.45;;;3.90;;
22184;SDS011;11258;52.516;13.318;2023-06-14T13:12:36;4.50;;;3.50;;
22184;SDS011;11258;52.516;13.318;2023-06-14T13:15:01;6.10;;;3.70;;
22184;SDS011;11258;52.516;13.318;2023-06-14T13:17:27;5.28;;;3.10;;
22184;SDS011;11258;52.516;13.318;2023-06-14T13:19:53;8.77;;;3.28;;
22184;SDS011;11258;52.516;13.318;2023-06-14T13:22:18;4.72;;;3.25;;
22184;SDS011;11258;52.516;13.318;2023-06-14T13:24:44;9.52;;;3.50;;
22184;SDS011;11258;52.516;13.318;2023-06-14T13:27:10;5.60;;;3.17;;
22184;SDS011;11258;52.516;13.318;2023-06-14T13:29:36;5.72;;;3.63;;
22184;SDS011;11258;52.516;13.318;2023-06-14T13:32:02;8.32;;;3.97;;
22184;SDS011;11258;52.516;13.318;2023-06-14T13:34:28;5.97;;;3.75;;
22184;SDS011;11258;52.516;13.318;2023-06-14T13:36:54;4.60;;;3.17;;
22184;SDS011;11258;52.516;13.318;2023-06-14T13:39:20;5.13;;;3.30;;
22184;SDS011;11258;52.516;13.318;2023-06-14T13:41:46;8.75;;;4.22;;
22184;SDS011;11258;52.516;13.318;2023-06-14T13:44:11;5.75;;;3.60;;
22184;SDS011;11258;52.516;13.318;2023-06-14T13:46:39;5.75;;;3.78;;
22184;SDS011;11258;52.516;13.318;2023-06-14T13:49:07;5.93;;;3.63;;
22184;SDS011;11258;52.516;13.318;2023-06-14T13:51:33;10.23;;;3.33;;
22184;SDS011;11258;52.516;13.318;2023-06-14T13:54:00;4.85;;;3.40;;
22184;SDS011;11258;52.516;13.318;2023-06-14T13:56:26;6.13;;;2.85;;
22184;SDS011;11258;52.516;13.318;2023-06-14T13:58:52;5.22;;;3.08;;
22184;SDS011;11258;52.516;13.318;2023-06-14T14:01:17;10.57;;;3.78;;
22184;SDS011;11258;52.516;13.318;2023-06-14T14:03:45;8.20;;;3.00;;
22184;SDS011;11258;52.516;13.318;2023-06-14T14:06:11;11.90;;;4.65;;
22184;SDS011;11258;52.516;13.318;2023-06-14T14:08:38;11.25;;;6.78;;
22184;SDS011;11258;52.516;13.318;2023-06-14T14:16:26;5.38;;;3.50;;
22184;SDS011;11258;52.516;13.318;2023-06-14T14:18:52;7.22;;;2.97;;
22184;SDS011;11258;52.516;13.318;2023-06-14T14:21:17;9.63;;;3.42;;
22184;SDS011;11258;52.516;13.318;2023-06-14T14:23:43;7.72;;;3.38;;
22184;SDS011;11258;52.516;13.318;2023-06-14T14:26:10;7.63;;;3.65;;
22184;SDS011;11258;52.516;13.318;2023-06-14T14:28:36;5.75;;;3.40;;
22184;SDS011;11258;52.516;13.318;2023-06-14T14:31:01;7.07;;;4.32;;
22184;SDS011;11258;52.516;13.318;2023-06-14T14:33:27;6.88;;;3.63;;
22184;SDS011;11258;52.516;13.318;2023-06-14T14:35:52;6.57;;;3.70;;
22184;SDS011;11258;52.516;13.318;2023-06-14T14:38:18;5.70;;;3.85;;
22184;SDS011;11258;52.516;13.318;2023-06-14T14:40:44;5.35;;;3.60;;
22184;SDS011;11258;52.516;13.318;2023-06-14T14:43:10;9.00;;;3.38;;
22184;SDS011;11258;52.516;13.318;2023-06-14T14:45:36;6.70;;;3.40;;
22184;SDS011;11258;52.516;13.318;2023-06-14T14:48:02;7.30;;;3.38;;
22184;SDS011;11258;52.516;13.318;2023-06-14T14:50:28;5.35;;;3.25;;
22184;SDS011;11258;52.516;13.318;2023-06-14T14:52:54;12.65;;;3.85;;
22184;SDS011;11258;52.516;13.318;2023-06-14T14:55:20;7.13;;;4.07;;
22184;SDS011;11258;52.516;13.318;2023-06-14T14:57:46;5.20;;;3.47;;
22184;SDS011;11258;52.516;13.318;2023-06-14T15:00:14;8.00;;;3.22;;